createdAt,value
2018-07-21T00:00:08.076Z,20.95
2018-07-21T00:02:36.738Z,20.95
2018-07-21T00:05:05.418Z,21.04
2018-07-21T00:07:34.081Z,20.97
2018-07-21T00:10:02.717Z,20.92
2018-07-21T00:12:31.359Z,20.85
2018-07-21T00:15:00.052Z,20.77
2018-07-21T00:17:28.699Z,20.70
2018-07-21T00:19:57.317Z,20.85
2018-07-21T00:22:25.907Z,21.00
2018-07-21T00:24:54.499Z,21.12
2018-07-21T00:27:23.083Z,21.14
2018-07-21T00:29:51.700Z,21.23
2018-07-21T00:32:20.268Z,21.29
2018-07-21T00:34:48.985Z,21.25
2018-07-21T00:37:17.600Z,21.15
2018-07-21T00:39:46.184Z,21.14
2018-07-21T00:42:14.892Z,21.13
2018-07-21T00:44:43.691Z,21.10
2018-07-21T00:47:12.326Z,21.05
2018-07-21T00:49:41.006Z,20.98
2018-07-21T00:52:09.652Z,20.84
2018-07-21T00:54:38.224Z,20.82
2018-07-21T00:57:06.901Z,20.82
2018-07-21T00:59:35.514Z,20.75
2018-07-21T01:02:04.202Z,20.58
2018-07-21T01:04:32.919Z,20.52
2018-07-21T01:07:01.541Z,20.41
2018-07-21T01:09:30.173Z,20.47
2018-07-21T01:11:58.786Z,20.26
2018-07-21T01:14:27.385Z,20.23
2018-07-21T01:16:56.115Z,20.29
2018-07-21T01:19:24.848Z,20.25
2018-07-21T01:21:53.578Z,20.17
2018-07-21T01:24:22.252Z,20.21
2018-07-21T01:26:50.809Z,20.19
2018-07-21T01:29:23.228Z,20.17
2018-07-21T01:31:51.851Z,20.24
2018-07-21T01:34:20.432Z,20.22
2018-07-21T01:36:49.029Z,20.30
2018-07-21T01:39:17.681Z,20.29
2018-07-21T01:41:46.431Z,20.32
2018-07-21T01:44:15.079Z,20.36
2018-07-21T01:46:44.136Z,20.37
2018-07-21T01:49:12.730Z,20.48
2018-07-21T01:51:41.390Z,20.48
2018-07-21T01:54:09.951Z,20.46
2018-07-21T01:56:38.608Z,20.55
2018-07-21T01:59:07.154Z,20.55
2018-07-21T02:01:35.772Z,20.58
2018-07-21T02:04:04.326Z,20.57
2018-07-21T02:06:33.072Z,20.54
2018-07-21T02:09:01.776Z,20.64
2018-07-21T02:11:30.386Z,20.69
2018-07-21T02:13:59.074Z,20.65
2018-07-21T02:16:27.812Z,20.61
2018-07-21T02:18:56.443Z,20.57
2018-07-21T02:21:25.158Z,20.65
2018-07-21T02:23:53.732Z,20.62
2018-07-21T02:26:22.350Z,20.61
2018-07-21T02:28:51.036Z,20.55
2018-07-21T02:31:19.865Z,20.56
2018-07-21T02:33:48.546Z,20.51
2018-07-21T02:36:17.243Z,20.47
2018-07-21T02:38:45.865Z,20.44
2018-07-21T02:41:14.629Z,20.47
2018-07-21T02:43:43.204Z,20.40
2018-07-21T02:46:17.961Z,20.40
2018-07-21T02:48:46.611Z,20.41
2018-07-21T02:51:15.434Z,20.40
2018-07-21T02:53:44.011Z,20.36
2018-07-21T02:56:12.576Z,20.37
2018-07-21T02:58:41.195Z,20.35
2018-07-21T03:01:09.781Z,20.33
2018-07-21T03:03:38.374Z,20.35
2018-07-21T03:06:06.983Z,20.38
2018-07-21T03:08:35.688Z,20.42
2018-07-21T03:11:04.327Z,20.43
2018-07-21T03:13:34.185Z,20.47
2018-07-21T03:16:02.872Z,20.48
2018-07-21T03:18:31.430Z,20.49
2018-07-21T03:20:59.992Z,20.47
2018-07-21T03:23:28.674Z,20.46
2018-07-21T03:25:57.406Z,20.43
2018-07-21T03:28:26.023Z,20.56
2018-07-21T03:30:54.630Z,20.55
2018-07-21T03:33:23.196Z,20.61
2018-07-21T03:35:52.002Z,20.61
2018-07-21T03:38:20.650Z,20.57
2018-07-21T03:40:49.251Z,20.54
2018-07-21T03:43:17.868Z,20.57
2018-07-21T03:45:46.633Z,20.59
2018-07-21T03:48:15.256Z,20.57
2018-07-21T03:50:43.877Z,20.62
2018-07-21T03:53:12.563Z,20.63
2018-07-21T03:55:41.178Z,20.67
2018-07-21T03:58:09.938Z,20.67
2018-07-21T04:00:38.521Z,20.71
2018-07-21T04:03:07.160Z,20.71
2018-07-21T04:05:35.694Z,20.79
2018-07-21T04:08:04.443Z,20.79
2018-07-21T04:10:33.027Z,20.82
2018-07-21T04:13:01.873Z,20.78
2018-07-21T04:15:30.395Z,20.80
2018-07-21T04:17:58.932Z,21.09
2018-07-21T04:20:27.527Z,21.15
2018-07-21T04:22:56.209Z,21.36
2018-07-21T04:25:24.986Z,21.36
2018-07-21T04:27:53.633Z,21.37
2018-07-21T04:30:22.270Z,21.35
2018-07-21T04:32:50.944Z,21.34
2018-07-21T04:35:19.558Z,21.44
2018-07-21T04:37:48.141Z,21.38
2018-07-21T04:40:16.752Z,21.47
2018-07-21T04:42:45.441Z,21.50
2018-07-21T04:45:14.088Z,21.65
2018-07-21T04:47:42.685Z,21.58
2018-07-21T04:50:11.288Z,21.65
2018-07-21T04:52:40.057Z,21.69
2018-07-21T04:55:08.773Z,21.75
2018-07-21T04:57:37.310Z,21.79
2018-07-21T05:00:06.743Z,21.79
2018-07-21T05:02:35.344Z,21.87
2018-07-21T05:05:04.184Z,21.81
2018-07-21T05:07:32.860Z,21.64
2018-07-21T05:10:01.471Z,21.52
2018-07-21T05:12:30.148Z,21.50
2018-07-21T05:14:58.818Z,21.42
2018-07-21T05:17:27.556Z,21.28
2018-07-21T05:19:56.373Z,21.21
2018-07-21T05:22:25.018Z,21.19
2018-07-21T05:24:53.590Z,21.00
2018-07-21T05:27:22.379Z,21.05
2018-07-21T05:29:50.904Z,21.11
2018-07-21T05:32:19.598Z,21.18
2018-07-21T05:34:48.287Z,21.15
2018-07-21T05:37:16.885Z,21.19
2018-07-21T05:39:46.039Z,21.23
2018-07-21T05:42:14.798Z,21.24
2018-07-21T05:44:43.422Z,21.23
2018-07-21T05:47:12.125Z,21.17
2018-07-21T05:49:40.738Z,21.15
2018-07-21T05:52:09.485Z,21.14
2018-07-21T05:54:38.167Z,21.11
2018-07-21T05:57:06.951Z,21.15
2018-07-21T05:59:35.515Z,21.18
2018-07-21T06:02:04.257Z,21.16
2018-07-21T06:04:32.803Z,21.04
2018-07-21T06:07:01.435Z,21.01
2018-07-21T06:09:30.021Z,21.19
2018-07-21T06:11:58.618Z,28.28
2018-07-21T06:14:27.261Z,27.56
2018-07-21T06:16:55.937Z,27.44
2018-07-21T06:19:24.732Z,27.22
2018-07-21T06:21:53.391Z,27.17
2018-07-21T06:24:22.159Z,27.17
2018-07-21T06:26:50.880Z,26.58
2018-07-21T06:29:19.547Z,26.33
2018-07-21T06:31:48.089Z,26.12
2018-07-21T06:34:16.938Z,26.59
2018-07-21T06:36:45.862Z,26.46
2018-07-21T06:39:14.799Z,25.79
2018-07-21T06:41:43.435Z,25.97
2018-07-21T06:44:12.058Z,25.47
2018-07-21T06:46:40.720Z,25.68
2018-07-21T06:49:09.391Z,25.77
2018-07-21T06:51:38.055Z,25.90
2018-07-21T06:54:06.929Z,25.88
2018-07-21T06:56:35.672Z,26.15
2018-07-21T06:59:04.309Z,26.25
2018-07-21T07:01:32.926Z,26.50
2018-07-21T07:04:01.469Z,26.53
2018-07-21T07:06:30.140Z,26.69
2018-07-21T07:08:58.772Z,26.58
2018-07-21T07:11:27.491Z,26.74
2018-07-21T07:13:56.225Z,26.85
2018-07-21T07:16:24.856Z,26.93
2018-07-21T07:18:53.396Z,26.95
2018-07-21T07:21:22.204Z,26.93
2018-07-21T07:23:50.825Z,27.02
2018-07-21T07:26:19.592Z,27.29
2018-07-21T07:28:48.548Z,27.35
2018-07-21T07:31:17.092Z,27.28
2018-07-21T07:33:45.625Z,27.97
2018-07-21T07:36:14.260Z,27.31
2018-07-21T07:38:42.830Z,27.31
2018-07-21T07:41:11.401Z,27.35
2018-07-21T07:43:39.980Z,27.61
2018-07-21T07:46:08.750Z,27.85
2018-07-21T07:48:37.597Z,27.99
2018-07-21T07:51:06.262Z,28.09
2018-07-21T07:53:35.948Z,28.23
2018-07-21T07:56:04.591Z,28.18
2018-07-21T07:58:33.443Z,27.82
2018-07-21T08:01:02.095Z,27.78
2018-07-21T08:03:30.818Z,27.63
2018-07-21T08:05:59.454Z,27.97
2018-07-21T08:08:28.113Z,28.05
2018-07-21T08:10:56.914Z,28.18
2018-07-21T08:13:25.720Z,27.90
2018-07-21T08:15:54.301Z,27.98
2018-07-21T08:18:23.027Z,28.07
2018-07-21T08:20:51.516Z,27.54
2018-07-21T08:23:20.176Z,27.72
2018-07-21T08:25:48.702Z,27.79
2018-07-21T08:28:17.280Z,27.96
2018-07-21T08:30:45.888Z,28.09
2018-07-21T08:33:14.510Z,28.38
2018-07-21T08:35:43.116Z,27.43
2018-07-21T08:38:11.838Z,27.71
2018-07-21T08:40:40.507Z,27.58
2018-07-21T08:43:09.225Z,27.50
2018-07-21T08:45:37.908Z,26.98
2018-07-21T08:48:06.537Z,27.48
2018-07-21T08:50:35.116Z,27.33
2018-07-21T08:53:03.891Z,27.44
2018-07-21T08:55:32.456Z,27.30
2018-07-21T08:58:01.224Z,26.91
2018-07-21T09:00:30.166Z,27.02
2018-07-21T09:02:58.756Z,26.62
2018-07-21T09:05:27.404Z,26.41
2018-07-21T09:07:56.068Z,26.74
2018-07-21T09:10:24.818Z,26.47
2018-07-21T09:12:53.572Z,26.05
2018-07-21T09:15:22.258Z,26.65
2018-07-21T09:17:50.934Z,26.76
2018-07-21T09:20:19.642Z,26.63
2018-07-21T09:22:48.299Z,26.27
2018-07-21T09:25:16.950Z,26.30
2018-07-21T09:27:45.512Z,26.04
2018-07-21T09:30:14.127Z,26.15
2018-07-21T09:32:42.922Z,25.91
2018-07-21T09:35:11.482Z,25.84
2018-07-21T09:37:40.295Z,25.72
2018-07-21T09:40:09.052Z,25.77
2018-07-21T09:42:37.837Z,25.60
2018-07-21T09:45:06.725Z,25.20
2018-07-21T09:47:35.518Z,25.22
2018-07-21T09:50:04.428Z,24.68
2018-07-21T09:52:33.241Z,24.90
2018-07-21T09:55:01.815Z,24.63
2018-07-21T09:57:30.392Z,24.18
2018-07-21T09:59:59.315Z,24.19
2018-07-21T10:02:28.009Z,24.22
2018-07-21T10:04:57.317Z,23.60
2018-07-21T10:07:26.056Z,22.93
2018-07-21T10:09:54.872Z,23.52
2018-07-21T10:12:23.464Z,23.96
2018-07-21T10:14:52.168Z,23.53
2018-07-21T10:17:20.773Z,29.55
2018-07-21T10:19:49.430Z,26.58
2018-07-21T10:22:18.099Z,25.91
2018-07-21T10:24:51.994Z,25.96
2018-07-21T10:27:20.616Z,26.31
2018-07-21T10:29:49.656Z,31.61
2018-07-21T10:32:18.353Z,28.54
2018-07-21T10:34:46.926Z,27.12
2018-07-21T10:37:15.606Z,29.99
2018-07-21T10:39:44.349Z,30.05
2018-07-21T10:42:12.990Z,28.74
2018-07-21T10:44:41.524Z,28.49
2018-07-21T10:47:10.183Z,28.59
2018-07-21T10:49:38.818Z,28.72
2018-07-21T10:52:07.478Z,28.69
2018-07-21T10:54:36.064Z,28.35
2018-07-21T10:57:04.683Z,28.43
2018-07-21T10:59:33.227Z,28.81
2018-07-21T11:02:01.908Z,28.68
2018-07-21T11:04:30.509Z,28.15
2018-07-21T11:06:59.146Z,27.75
2018-07-21T11:09:27.967Z,27.82
2018-07-21T11:11:56.559Z,27.29
2018-07-21T11:14:25.301Z,28.55
2018-07-21T11:16:53.967Z,28.21
2018-07-21T11:19:22.607Z,28.87
2018-07-21T11:21:51.265Z,28.11
2018-07-21T11:24:19.891Z,28.45
2018-07-21T11:26:48.524Z,28.23
2018-07-21T11:29:17.161Z,27.71
2018-07-21T11:31:45.883Z,27.36
2018-07-21T11:34:14.605Z,26.02
2018-07-21T11:36:43.142Z,27.30
2018-07-21T11:39:11.851Z,28.02
2018-07-21T11:41:40.628Z,28.41
2018-07-21T11:44:09.395Z,28.52
2018-07-21T11:46:37.967Z,28.34
2018-07-21T11:49:06.559Z,28.75
2018-07-21T11:51:35.143Z,28.23
2018-07-21T11:54:03.731Z,28.08
2018-07-21T11:56:32.426Z,28.50
2018-07-21T11:59:01.189Z,27.87
2018-07-21T12:01:30.037Z,28.35
2018-07-21T12:03:58.643Z,28.60
2018-07-21T12:06:27.289Z,28.51
2018-07-21T12:08:55.882Z,28.63
2018-07-21T12:11:24.534Z,29.23
2018-07-21T12:13:53.158Z,29.34
2018-07-21T12:16:21.829Z,29.54
2018-07-21T12:18:50.517Z,29.10
2018-07-21T12:21:19.289Z,29.45
2018-07-21T12:23:47.972Z,29.73
2018-07-21T12:26:16.807Z,29.36
2018-07-21T12:28:45.316Z,29.65
2018-07-21T12:31:13.922Z,29.72
2018-07-21T12:33:42.681Z,29.61
2018-07-21T12:36:11.399Z,30.32
2018-07-21T12:38:40.226Z,30.63
2018-07-21T12:41:08.904Z,30.23
2018-07-21T12:43:37.563Z,29.91
2018-07-21T12:46:06.317Z,29.69
2018-07-21T12:48:35.075Z,28.83
2018-07-21T12:51:03.934Z,30.00
2018-07-21T12:53:32.595Z,29.84
2018-07-21T12:56:01.312Z,30.68
2018-07-21T12:58:30.188Z,29.52
2018-07-21T13:00:58.749Z,30.52
2018-07-21T13:03:27.657Z,30.87
2018-07-21T13:05:56.225Z,29.27
2018-07-21T13:08:24.995Z,29.44
2018-07-21T13:10:53.704Z,31.72
2018-07-21T13:13:22.423Z,30.46
2018-07-21T13:15:51.192Z,32.25
2018-07-21T13:18:19.913Z,32.86
2018-07-21T13:20:48.887Z,36.22
2018-07-21T13:23:17.842Z,34.76
2018-07-21T13:25:46.593Z,37.52
2018-07-21T13:28:15.300Z,38.58
2018-07-21T13:30:44.065Z,38.41
2018-07-21T13:33:12.867Z,37.93
2018-07-21T13:35:41.596Z,36.93
2018-07-21T13:38:10.428Z,35.42
2018-07-21T13:40:39.207Z,35.41
2018-07-21T13:43:08.075Z,33.76
2018-07-21T13:45:36.746Z,32.26
2018-07-21T13:48:05.536Z,32.12
2018-07-21T13:50:34.086Z,31.66
2018-07-21T13:53:02.716Z,31.56
2018-07-21T13:55:31.360Z,30.98
2018-07-21T13:57:59.961Z,33.13
2018-07-21T14:00:29.622Z,32.36
2018-07-21T14:02:58.322Z,32.97
2018-07-21T14:05:27.135Z,33.91
2018-07-21T14:07:55.944Z,34.94
2018-07-21T14:10:24.849Z,35.60
2018-07-21T14:12:53.425Z,35.75
2018-07-21T14:15:22.055Z,36.42
2018-07-21T14:17:50.818Z,34.35
2018-07-21T14:20:19.777Z,34.34
2018-07-21T14:22:48.862Z,33.68
2018-07-21T14:25:17.465Z,34.14
2018-07-21T14:27:46.241Z,35.96
2018-07-21T14:30:18.317Z,36.56
2018-07-21T14:32:48.111Z,35.96
2018-07-21T14:35:17.924Z,36.22
2018-07-21T14:37:46.462Z,35.68
2018-07-21T14:40:15.006Z,34.92
2018-07-21T14:42:43.639Z,35.73
2018-07-21T14:45:12.276Z,37.64
2018-07-21T14:47:40.809Z,40.09
2018-07-21T14:50:09.522Z,44.25
2018-07-21T14:52:38.175Z,42.77
2018-07-21T14:55:07.027Z,40.99
2018-07-21T14:57:35.679Z,41.28
2018-07-21T15:00:05.519Z,38.82
2018-07-21T15:02:34.112Z,38.81
2018-07-21T15:05:02.782Z,37.98
2018-07-21T15:07:31.670Z,38.04
2018-07-21T15:10:00.368Z,37.95
2018-07-21T15:12:29.081Z,38.65
2018-07-21T15:14:57.734Z,44.09
2018-07-21T15:17:26.535Z,43.70
2018-07-21T15:19:55.318Z,46.33
2018-07-21T15:22:24.093Z,45.76
2018-07-21T15:24:52.953Z,45.25
2018-07-21T15:27:21.779Z,41.93
2018-07-21T15:29:50.686Z,40.21
2018-07-21T15:32:19.512Z,40.67
2018-07-21T15:34:48.338Z,37.65
2018-07-21T15:37:17.105Z,34.43
2018-07-21T15:39:45.829Z,35.56
2018-07-21T15:42:14.612Z,32.75
2018-07-21T15:44:43.367Z,32.46
2018-07-21T15:47:12.042Z,31.99
2018-07-21T15:49:41.014Z,31.54
2018-07-21T15:52:09.791Z,30.85
2018-07-21T15:54:38.373Z,30.80
2018-07-21T15:57:07.244Z,30.89
2018-07-21T15:59:35.946Z,30.31
2018-07-21T16:02:04.588Z,30.17
2018-07-21T16:04:33.261Z,30.57
2018-07-21T16:07:01.922Z,29.78
2018-07-21T16:09:30.707Z,30.27
2018-07-21T16:11:59.276Z,29.64
2018-07-21T16:14:27.955Z,29.75
2018-07-21T16:16:56.657Z,29.51
2018-07-21T16:19:25.401Z,30.53
2018-07-21T16:21:54.410Z,29.88
2018-07-21T16:24:23.225Z,30.78
2018-07-21T16:26:51.804Z,30.17
2018-07-21T16:29:20.431Z,28.82
2018-07-21T16:31:49.193Z,28.57
2018-07-21T16:34:18.100Z,28.20
2018-07-21T16:36:46.700Z,28.59
2018-07-21T16:39:15.513Z,28.03
2018-07-21T16:41:44.209Z,27.78
2018-07-21T16:44:12.959Z,28.11
2018-07-21T16:46:41.618Z,27.82
2018-07-21T16:49:10.351Z,27.41
2018-07-21T16:51:39.157Z,27.34
2018-07-21T16:54:07.804Z,27.43
2018-07-21T16:56:36.603Z,27.24
2018-07-21T16:59:05.329Z,26.75
2018-07-21T17:01:34.089Z,26.70
2018-07-21T17:04:02.788Z,26.01
2018-07-21T17:06:31.577Z,26.12
2018-07-21T17:09:00.276Z,26.45
2018-07-21T17:11:29.102Z,25.74
2018-07-21T17:13:57.854Z,25.21
2018-07-21T17:16:26.612Z,25.46
2018-07-21T17:18:55.437Z,24.93
2018-07-21T17:21:24.333Z,24.81
2018-07-21T17:23:53.015Z,25.04
2018-07-21T17:26:21.771Z,24.89
2018-07-21T17:28:50.377Z,24.74
2018-07-21T17:31:19.556Z,24.35
2018-07-21T17:33:48.372Z,24.40
2018-07-21T17:36:22.624Z,24.25
2018-07-21T17:38:51.771Z,23.83
2018-07-21T17:41:22.461Z,23.98
2018-07-21T17:43:51.133Z,24.24
2018-07-21T17:46:20.458Z,24.15
2018-07-21T17:48:49.083Z,24.37
2018-07-21T17:51:17.893Z,24.97
2018-07-21T17:53:46.597Z,24.73
2018-07-21T17:56:15.402Z,24.65
2018-07-21T17:58:44.082Z,24.39
2018-07-21T18:01:13.031Z,23.76
2018-07-21T18:03:42.076Z,24.14
2018-07-21T18:06:10.832Z,24.36
2018-07-21T18:08:39.700Z,24.28
2018-07-21T18:11:08.370Z,24.64
2018-07-21T18:13:36.940Z,24.51
2018-07-21T18:16:05.658Z,24.55
2018-07-21T18:18:34.219Z,24.81
2018-07-21T18:21:02.915Z,24.56
2018-07-21T18:23:31.593Z,24.89
2018-07-21T18:26:00.238Z,24.30
2018-07-21T18:28:28.920Z,24.40
2018-07-21T18:30:57.592Z,24.39
2018-07-21T18:33:26.257Z,24.13
2018-07-21T18:36:16.085Z,24.25
2018-07-21T18:39:08.184Z,24.11
2018-07-21T18:41:37.116Z,24.11
2018-07-21T18:44:06.022Z,25.02
2018-07-21T18:46:34.764Z,24.15
2018-07-21T18:49:05.183Z,24.12
2018-07-21T18:51:34.113Z,23.48
2018-07-21T18:54:03.384Z,24.47
2018-07-21T18:56:31.984Z,24.07
2018-07-21T18:59:00.988Z,24.31
2018-07-21T19:01:29.798Z,24.52
2018-07-21T19:03:58.355Z,24.32
2018-07-21T19:06:26.921Z,24.56
2018-07-21T19:09:21.452Z,24.84
2018-07-21T19:11:55.077Z,24.32
2018-07-21T19:14:23.373Z,24.03
2018-07-21T19:16:58.336Z,23.96
2018-07-21T19:19:30.813Z,24.12
2018-07-21T19:21:59.118Z,24.02
2018-07-21T19:24:27.569Z,23.57
2018-07-21T19:27:01.163Z,23.52
2018-07-21T19:29:29.526Z,23.63
2018-07-21T19:32:03.202Z,23.66
2018-07-21T19:34:32.645Z,23.93
2018-07-21T19:37:04.644Z,23.93
2018-07-21T19:39:33.088Z,24.02
2018-07-21T19:42:05.140Z,24.16
2018-07-21T19:44:33.705Z,24.79
2018-07-21T19:47:01.992Z,25.03
2018-07-21T19:49:30.581Z,25.15
2018-07-21T19:51:59.420Z,25.37
2018-07-21T19:54:31.243Z,25.47
2018-07-21T19:56:59.891Z,25.41
2018-07-21T19:59:29.200Z,25.45
2018-07-21T20:01:58.113Z,25.60
2018-07-21T20:04:26.392Z,25.59
2018-07-21T20:06:54.699Z,25.75
2018-07-21T20:09:23.116Z,25.71
2018-07-21T20:11:51.418Z,25.61
2018-07-21T20:14:19.995Z,25.22
2018-07-21T20:16:48.847Z,24.89
2018-07-21T20:19:17.268Z,24.51
2018-07-21T20:21:45.583Z,24.22
2018-07-21T20:24:13.896Z,24.72
2018-07-21T20:26:42.196Z,24.67
2018-07-21T20:29:10.543Z,24.49
2018-07-21T20:31:39.677Z,24.24
2018-07-21T20:34:08.039Z,24.65
2018-07-21T20:36:36.453Z,24.74
2018-07-21T20:39:07.523Z,24.88
2018-07-21T20:41:35.937Z,25.13
2018-07-21T20:44:04.372Z,24.88
2018-07-21T20:46:32.808Z,24.72
2018-07-21T20:49:01.207Z,24.91
2018-07-21T20:51:29.641Z,25.09
2018-07-21T20:53:58.273Z,25.14
2018-07-21T20:56:26.751Z,24.80
2018-07-21T20:58:55.681Z,24.75
2018-07-21T21:01:24.050Z,25.01
2018-07-21T21:03:55.949Z,24.96
2018-07-21T21:06:24.380Z,25.16
2018-07-21T21:08:52.617Z,25.27
2018-07-21T21:11:21.010Z,25.12
2018-07-21T21:13:49.323Z,25.06
2018-07-21T21:16:17.652Z,25.27
2018-07-21T21:18:45.965Z,24.98
2018-07-21T21:21:14.385Z,24.96
2018-07-21T21:23:42.651Z,24.86
2018-07-21T21:26:11.063Z,25.21
2018-07-21T21:28:40.420Z,25.17
2018-07-21T21:31:08.837Z,25.22
2018-07-21T21:33:39.055Z,25.41
2018-07-21T21:36:08.550Z,25.49
2018-07-21T21:38:38.803Z,25.48
2018-07-21T21:41:08.324Z,25.52
2018-07-21T21:43:37.720Z,25.25
2018-07-21T21:46:06.443Z,25.49
2018-07-21T21:48:35.844Z,25.51
2018-07-21T21:51:04.261Z,25.47
2018-07-21T21:53:33.768Z,25.07
2018-07-21T21:56:02.466Z,25.42
2018-07-21T21:58:31.945Z,25.27
2018-07-21T22:01:05.266Z,25.35
2018-07-21T22:03:33.728Z,25.40
2018-07-21T22:06:02.848Z,25.41
2018-07-21T22:08:32.125Z,25.22
2018-07-21T22:11:00.654Z,24.90
2018-07-21T22:13:29.610Z,24.95
2018-07-21T22:15:59.610Z,25.16
2018-07-21T22:18:28.900Z,25.02
2018-07-21T22:20:57.419Z,25.13
2018-07-21T22:23:25.758Z,25.20
2018-07-21T22:25:54.577Z,25.30
2018-07-21T22:28:22.908Z,25.29
2018-07-21T22:30:51.228Z,24.89
2018-07-21T22:33:19.573Z,25.17
2018-07-21T22:35:47.868Z,25.12
2018-07-21T22:38:16.880Z,25.38
2018-07-21T22:40:45.258Z,25.51
2018-07-21T22:43:13.644Z,25.61
2018-07-21T22:45:46.227Z,25.65
2018-07-21T22:48:14.892Z,25.14
2018-07-21T22:50:43.253Z,24.98
2018-07-21T22:53:11.692Z,25.31
2018-07-21T22:55:40.052Z,24.93
2018-07-21T22:58:12.352Z,25.12
2018-07-21T23:00:40.782Z,25.56
2018-07-21T23:03:09.117Z,25.58
2018-07-21T23:05:38.114Z,25.75
2018-07-21T23:08:07.617Z,25.61
2018-07-21T23:10:36.499Z,25.40
2018-07-21T23:13:05.032Z,25.37
2018-07-21T23:15:35.289Z,25.18
2018-07-21T23:18:03.703Z,25.47
2018-07-21T23:20:32.101Z,25.21
2018-07-21T23:23:00.446Z,25.10
2018-07-21T23:25:29.594Z,25.21
2018-07-21T23:27:58.017Z,25.41
2018-07-21T23:30:26.293Z,25.12
2018-07-21T23:32:54.586Z,25.30
2018-07-21T23:35:23.903Z,25.44
2018-07-21T23:37:52.226Z,24.95
2018-07-21T23:40:20.548Z,24.86
2018-07-21T23:42:48.904Z,24.60
2018-07-21T23:45:17.309Z,24.86
2018-07-21T23:47:45.595Z,24.64
2018-07-21T23:50:13.928Z,24.14
2018-07-21T23:52:42.198Z,24.18
2018-07-21T23:55:10.527Z,24.29
2018-07-21T23:57:39.165Z,24.54
